sensor_id;sensor_type;location;lat;lon;timestamp;P1;durP1;ratioP1;P2;durP2;ratioP2
1593;SDS011;790;47.000;16.084;2022-10-20T00:00:53;4.03;;;2.47;;
1593;SDS011;790;47.000;16.084;2022-10-20T00:03:21;3.17;;;2.50;;
1593;SDS011;790;47.000;16.084;2022-10-20T00:05:49;2.70;;;2.50;;
1593;SDS011;790;47.000;16.084;2022-10-20T00:08:17;6.67;;;2.47;;
1593;SDS011;790;47.000;16.084;2022-10-20T00:10:52;4.57;;;2.60;;
1593;SDS011;790;47.000;16.084;2022-10-20T00:13:19;2.60;;;2.40;;
1593;SDS011;790;47.000;16.084;2022-10-20T00:15:47;5.47;;;2.70;;
1593;SDS011;790;47.000;16.084;2022-10-20T00:18:15;3.03;;;2.50;;
1593;SDS011;790;47.000;16.084;2022-10-20T00:20:42;6.97;;;3.10;;
1593;SDS011;790;47.000;16.084;2022-10-20T00:23:09;3.13;;;2.43;;
1593;SDS011;790;47.000;16.084;2022-10-20T00:25:36;5.20;;;2.40;;
1593;SDS011;790;47.000;16.084;2022-10-20T00:28:04;7.13;;;2.73;;
1593;SDS011;790;47.000;16.084;2022-10-20T00:30:32;3.43;;;2.33;;
1593;SDS011;790;47.000;16.084;2022-10-20T00:33:00;3.80;;;2.70;;
1593;SDS011;790;47.000;16.084;2022-10-20T00:35:28;2.53;;;2.33;;
1593;SDS011;790;47.000;16.084;2022-10-20T00:37:55;5.13;;;2.43;;
1593;SDS011;790;47.000;16.084;2022-10-20T00:40:23;5.90;;;2.50;;
1593;SDS011;790;47.000;16.084;2022-10-20T00:42:50;6.17;;;2.60;;
1593;SDS011;790;47.000;16.084;2022-10-20T00:45:19;2.67;;;2.40;;
1593;SDS011;790;47.000;16.084;2022-10-20T00:47:48;6.17;;;2.70;;
1593;SDS011;790;47.000;16.084;2022-10-20T00:50:20;4.50;;;2.50;;
1593;SDS011;790;47.000;16.084;2022-10-20T00:52:50;3.93;;;2.60;;
1593;SDS011;790;47.000;16.084;2022-10-20T00:55:19;5.17;;;2.50;;
1593;SDS011;790;47.000;16.084;2022-10-20T00:57:49;5.93;;;2.60;;
1593;SDS011;790;47.000;16.084;2022-10-20T01:00:21;2.33;;;2.20;;
1593;SDS011;790;47.000;16.084;2022-10-20T01:02:49;3.10;;;2.80;;
1593;SDS011;790;47.000;16.084;2022-10-20T01:05:18;3.97;;;2.50;;
1593;SDS011;790;47.000;16.084;2022-10-20T01:07:45;3.87;;;2.97;;
1593;SDS011;790;47.000;16.084;2022-10-20T01:10:12;3.83;;;2.80;;
1593;SDS011;790;47.000;16.084;2022-10-20T01:12:42;3.40;;;2.60;;
1593;SDS011;790;47.000;16.084;2022-10-20T01:15:15;5.23;;;2.50;;
1593;SDS011;790;47.000;16.084;2022-10-20T01:17:56;6.43;;;2.67;;
1593;SDS011;790;47.000;16.084;2022-10-20T01:20:40;6.93;;;2.77;;
1593;SDS011;790;47.000;16.084;2022-10-20T01:26:41;4.13;;;2.80;;
1593;SDS011;790;47.000;16.084;2022-10-20T01:29:26;2.57;;;2.40;;
1593;SDS011;790;47.000;16.084;2022-10-20T01:31:58;4.40;;;2.63;;
1593;SDS011;790;47.000;16.084;2022-10-20T01:34:34;4.50;;;3.17;;
1593;SDS011;790;47.000;16.084;2022-10-20T01:37:10;5.17;;;3.00;;
1593;SDS011;790;47.000;16.084;2022-10-20T01:39:45;2.90;;;2.70;;
1593;SDS011;790;47.000;16.084;2022-10-20T01:42:18;5.00;;;3.27;;
1593;SDS011;790;47.000;16.084;2022-10-20T01:44:50;3.83;;;2.80;;
1593;SDS011;790;47.000;16.084;2022-10-20T01:47:20;8.57;;;3.23;;
1593;SDS011;790;47.000;16.084;2022-10-20T01:49:50;3.97;;;2.70;;
1593;SDS011;790;47.000;16.084;2022-10-20T01:52:17;4.10;;;3.10;;
1593;SDS011;790;47.000;16.084;2022-10-20T01:54:46;5.40;;;3.10;;
1593;SDS011;790;47.000;16.084;2022-10-20T01:57:17;4.40;;;2.87;;
1593;SDS011;790;47.000;16.084;2022-10-20T02:02:43;4.47;;;3.20;;
1593;SDS011;790;47.000;16.084;2022-10-20T02:05:29;3.00;;;2.63;;
1593;SDS011;790;47.000;16.084;2022-10-20T02:08:05;8.37;;;3.77;;
1593;SDS011;790;47.000;16.084;2022-10-20T02:10:40;4.20;;;2.80;;
1593;SDS011;790;47.000;16.084;2022-10-20T02:13:11;6.73;;;3.10;;
1593;SDS011;790;47.000;16.084;2022-10-20T02:15:41;6.80;;;2.77;;
1593;SDS011;790;47.000;16.084;2022-10-20T02:18:12;3.97;;;2.67;;
1593;SDS011;790;47.000;16.084;2022-10-20T02:20:42;3.60;;;2.83;;
1593;SDS011;790;47.000;16.084;2022-10-20T02:23:12;5.77;;;3.00;;
1593;SDS011;790;47.000;16.084;2022-10-20T02:25:39;3.40;;;2.90;;
1593;SDS011;790;47.000;16.084;2022-10-20T02:28:07;4.10;;;3.00;;
1593;SDS011;790;47.000;16.084;2022-10-20T02:30:37;3.70;;;2.60;;
1593;SDS011;790;47.000;16.084;2022-10-20T02:33:08;3.13;;;2.30;;
1593;SDS011;790;47.000;16.084;2022-10-20T02:35:35;5.60;;;2.87;;
1593;SDS011;790;47.000;16.084;2022-10-20T02:38:04;4.07;;;2.63;;
1593;SDS011;790;47.000;16.084;2022-10-20T02:40:31;4.07;;;2.73;;
1593;SDS011;790;47.000;16.084;2022-10-20T02:42:58;4.83;;;2.47;;
1593;SDS011;790;47.000;16.084;2022-10-20T02:45:25;3.47;;;2.80;;
1593;SDS011;790;47.000;16.084;2022-10-20T02:47:53;3.93;;;2.97;;
1593;SDS011;790;47.000;16.084;2022-10-20T02:50:20;2.63;;;2.50;;
1593;SDS011;790;47.000;16.084;2022-10-20T02:52:47;3.97;;;2.77;;
1593;SDS011;790;47.000;16.084;2022-10-20T02:55:14;4.23;;;2.80;;
1593;SDS011;790;47.000;16.084;2022-10-20T02:57:42;4.13;;;3.00;;
1593;SDS011;790;47.000;16.084;2022-10-20T03:00:09;3.40;;;3.10;;
1593;SDS011;790;47.000;16.084;2022-10-20T03:02:37;4.93;;;3.10;;
1593;SDS011;790;47.000;16.084;2022-10-20T03:05:06;6.30;;;3.33;;
1593;SDS011;790;47.000;16.084;2022-10-20T03:07:33;3.37;;;3.17;;
1593;SDS011;790;47.000;16.084;2022-10-20T03:10:00;9.10;;;3.30;;
1593;SDS011;790;47.000;16.084;2022-10-20T03:12:27;3.83;;;3.47;;
1593;SDS011;790;47.000;16.084;2022-10-20T03:14:54;6.73;;;3.70;;
1593;SDS011;790;47.000;16.084;2022-10-20T03:17:21;4.40;;;3.37;;
1593;SDS011;790;47.000;16.084;2022-10-20T03:19:48;3.77;;;3.00;;
1593;SDS011;790;47.000;16.084;2022-10-20T03:22:17;3.63;;;3.30;;
1593;SDS011;790;47.000;16.084;2022-10-20T03:24:44;3.77;;;3.40;;
1593;SDS011;790;47.000;16.084;2022-10-20T03:27:11;3.97;;;3.10;;
1593;SDS011;790;47.000;16.084;2022-10-20T03:29:38;6.30;;;3.30;;
1593;SDS011;790;47.000;16.084;2022-10-20T03:32:05;4.00;;;2.97;;
1593;SDS011;790;47.000;16.084;2022-10-20T03:34:32;3.27;;;3.00;;
1593;SDS011;790;47.000;16.084;2022-10-20T03:36:59;3.30;;;3.00;;
1593;SDS011;790;47.000;16.084;2022-10-20T03:39:27;6.93;;;3.10;;
1593;SDS011;790;47.000;16.084;2022-10-20T03:41:54;8.43;;;3.87;;
1593;SDS011;790;47.000;16.084;2022-10-20T03:44:22;6.40;;;3.10;;
1593;SDS011;790;47.000;16.084;2022-10-20T03:46:49;4.97;;;3.77;;
1593;SDS011;790;47.000;16.084;2022-10-20T03:49:16;5.57;;;3.30;;
1593;SDS011;790;47.000;16.084;2022-10-20T03:51:43;5.20;;;3.63;;
1593;SDS011;790;47.000;16.084;2022-10-20T03:54:10;4.70;;;3.37;;
1593;SDS011;790;47.000;16.084;2022-10-20T03:56:39;6.07;;;3.93;;
1593;SDS011;790;47.000;16.084;2022-10-20T03:59:06;3.90;;;3.50;;
1593;SDS011;790;47.000;16.084;2022-10-20T04:01:34;4.60;;;3.63;;
1593;SDS011;790;47.000;16.084;2022-10-20T04:04:01;4.83;;;3.60;;
1593;SDS011;790;47.000;16.084;2022-10-20T04:06:28;3.80;;;3.30;;
1593;SDS011;790;47.000;16.084;2022-10-20T04:08:56;7.13;;;4.00;;
1593;SDS011;790;47.000;16.084;2022-10-20T04:11:23;4.17;;;3.77;;
1593;SDS011;790;47.000;16.084;2022-10-20T04:13:52;5.53;;;3.90;;
1593;SDS011;790;47.000;16.084;2022-10-20T04:16:19;5.90;;;3.63;;
1593;SDS011;790;47.000;16.084;2022-10-20T04:18:47;4.17;;;3.57;;
1593;SDS011;790;47.000;16.084;2022-10-20T04:21:14;4.47;;;4.17;;
1593;SDS011;790;47.000;16.084;2022-10-20T04:23:41;7.43;;;4.23;;
1593;SDS011;790;47.000;16.084;2022-10-20T04:26:08;4.20;;;3.30;;
1593;SDS011;790;47.000;16.084;2022-10-20T04:28:36;5.80;;;3.47;;
1593;SDS011;790;47.000;16.084;2022-10-20T04:31:04;4.63;;;4.13;;
1593;SDS011;790;47.000;16.084;2022-10-20T04:33:32;3.90;;;3.60;;
1593;SDS011;790;47.000;16.084;2022-10-20T04:36:00;4.97;;;3.43;;
1593;SDS011;790;47.000;16.084;2022-10-20T04:38:28;3.80;;;3.50;;
1593;SDS011;790;47.000;16.084;2022-10-20T04:40:56;4.47;;;4.07;;
1593;SDS011;790;47.000;16.084;2022-10-20T04:43:24;4.27;;;3.83;;
1593;SDS011;790;47.000;16.084;2022-10-20T04:45:51;4.03;;;3.60;;
1593;SDS011;790;47.000;16.084;2022-10-20T04:48:24;4.00;;;3.60;;
1593;SDS011;790;47.000;16.084;2022-10-20T04:50:58;4.90;;;3.80;;
1593;SDS011;790;47.000;16.084;2022-10-20T04:53:26;4.00;;;3.70;;
1593;SDS011;790;47.000;16.084;2022-10-20T04:55:53;3.67;;;3.33;;
1593;SDS011;790;47.000;16.084;2022-10-20T04:58:20;4.50;;;3.57;;
1593;SDS011;790;47.000;16.084;2022-10-20T05:00:48;8.33;;;3.83;;
1593;SDS011;790;47.000;16.084;2022-10-20T05:03:16;4.00;;;3.50;;
1593;SDS011;790;47.000;16.084;2022-10-20T05:05:45;4.10;;;3.70;;
1593;SDS011;790;47.000;16.084;2022-10-20T05:08:13;5.10;;;4.13;;
1593;SDS011;790;47.000;16.084;2022-10-20T05:10:40;4.00;;;3.70;;
1593;SDS011;790;47.000;16.084;2022-10-20T05:13:07;4.37;;;2.97;;
1593;SDS011;790;47.000;16.084;2022-10-20T05:15:35;5.57;;;3.50;;
1593;SDS011;790;47.000;16.084;2022-10-20T05:18:02;4.00;;;3.60;;
1593;SDS011;790;47.000;16.084;2022-10-20T05:20:29;5.00;;;3.27;;
1593;SDS011;790;47.000;16.084;2022-10-20T05:22:57;5.87;;;3.77;;
1593;SDS011;790;47.000;16.084;2022-10-20T05:25:24;7.23;;;4.00;;
1593;SDS011;790;47.000;16.084;2022-10-20T05:27:51;5.47;;;3.83;;
1593;SDS011;790;47.000;16.084;2022-10-20T05:30:18;5.87;;;3.90;;
1593;SDS011;790;47.000;16.084;2022-10-20T05:32:45;4.00;;;3.60;;
1593;SDS011;790;47.000;16.084;2022-10-20T05:35:13;4.17;;;3.77;;
1593;SDS011;790;47.000;16.084;2022-10-20T05:37:40;12.90;;;3.60;;
1593;SDS011;790;47.000;16.084;2022-10-20T05:40:09;4.50;;;4.10;;
1593;SDS011;790;47.000;16.084;2022-10-20T05:42:36;4.30;;;3.60;;
1593;SDS011;790;47.000;16.084;2022-10-20T05:45:04;4.30;;;4.00;;
1593;SDS011;790;47.000;16.084;2022-10-20T05:47:32;5.20;;;4.07;;
1593;SDS011;790;47.000;16.084;2022-10-20T05:49:59;6.33;;;4.10;;
1593;SDS011;790;47.000;16.084;2022-10-20T05:52:26;4.80;;;3.87;;
1593;SDS011;790;47.000;16.084;2022-10-20T05:54:53;6.47;;;3.80;;
1593;SDS011;790;47.000;16.084;2022-10-20T05:57:22;4.20;;;3.83;;
1593;SDS011;790;47.000;16.084;2022-10-20T05:59:49;4.47;;;3.63;;
1593;SDS011;790;47.000;16.084;2022-10-20T06:02:16;9.40;;;4.40;;
1593;SDS011;790;47.000;16.084;2022-10-20T06:04:43;6.57;;;3.70;;
1593;SDS011;790;47.000;16.084;2022-10-20T06:07:10;4.07;;;3.67;;
1593;SDS011;790;47.000;16.084;2022-10-20T06:09:37;9.33;;;4.10;;
1593;SDS011;790;47.000;16.084;2022-10-20T06:12:05;4.80;;;4.40;;
1593;SDS011;790;47.000;16.084;2022-10-20T06:14:34;4.97;;;4.60;;
1593;SDS011;790;47.000;16.084;2022-10-20T06:17:01;5.27;;;4.40;;
1593;SDS011;790;47.000;16.084;2022-10-20T06:19:28;4.67;;;4.37;;
1593;SDS011;790;47.000;16.084;2022-10-20T06:21:56;5.60;;;4.50;;
1593;SDS011;790;47.000;16.084;2022-10-20T06:24:22;5.80;;;4.27;;
1593;SDS011;790;47.000;16.084;2022-10-20T06:26:50;4.73;;;4.23;;
1593;SDS011;790;47.000;16.084;2022-10-20T06:29:17;5.30;;;4.03;;
1593;SDS011;790;47.000;16.084;2022-10-20T06:31:46;6.73;;;3.90;;
1593;SDS011;790;47.000;16.084;2022-10-20T06:34:15;3.53;;;3.20;;
1593;SDS011;790;47.000;16.084;2022-10-20T06:36:43;3.53;;;3.23;;
1593;SDS011;790;47.000;16.084;2022-10-20T06:39:12;4.27;;;3.20;;
1593;SDS011;790;47.000;16.084;2022-10-20T06:41:39;5.23;;;3.30;;
1593;SDS011;790;47.000;16.084;2022-10-20T06:44:07;3.07;;;2.83;;
1593;SDS011;790;47.000;16.084;2022-10-20T06:46:35;4.47;;;3.07;;
1593;SDS011;790;47.000;16.084;2022-10-20T06:49:04;6.93;;;2.63;;
1593;SDS011;790;47.000;16.084;2022-10-20T06:51:33;2.60;;;2.40;;
1593;SDS011;790;47.000;16.084;2022-10-20T06:54:00;3.77;;;2.30;;
1593;SDS011;790;47.000;16.084;2022-10-20T06:56:28;3.80;;;2.50;;
1593;SDS011;790;47.000;16.084;2022-10-20T06:58:56;3.53;;;2.30;;
1593;SDS011;790;47.000;16.084;2022-10-20T07:01:25;6.63;;;2.20;;
1593;SDS011;790;47.000;16.084;2022-10-20T07:03:53;2.30;;;2.07;;
1593;SDS011;790;47.000;16.084;2022-10-20T07:06:25;3.23;;;2.30;;
1593;SDS011;790;47.000;16.084;2022-10-20T07:08:54;3.17;;;2.37;;
1593;SDS011;790;47.000;16.084;2022-10-20T07:11:22;3.80;;;2.07;;
1593;SDS011;790;47.000;16.084;2022-10-20T07:13:50;2.83;;;2.17;;
1593;SDS011;790;47.000;16.084;2022-10-20T07:16:18;2.33;;;2.20;;
1593;SDS011;790;47.000;16.084;2022-10-20T07:18:47;2.63;;;1.90;;
1593;SDS011;790;47.000;16.084;2022-10-20T07:21:15;3.07;;;2.40;;
1593;SDS011;790;47.000;16.084;2022-10-20T07:23:45;2.20;;;2.10;;
1593;SDS011;790;47.000;16.084;2022-10-20T07:26:13;2.03;;;1.90;;
1593;SDS011;790;47.000;16.084;2022-10-20T07:28:42;2.10;;;1.90;;
1593;SDS011;790;47.000;16.084;2022-10-20T07:31:11;2.57;;;1.87;;
1593;SDS011;790;47.000;16.084;2022-10-20T07:33:39;1.90;;;1.60;;
1593;SDS011;790;47.000;16.084;2022-10-20T07:36:10;3.60;;;1.83;;
1593;SDS011;790;47.000;16.084;2022-10-20T07:38:38;1.83;;;1.67;;
1593;SDS011;790;47.000;16.084;2022-10-20T07:41:07;2.07;;;1.97;;
1593;SDS011;790;47.000;16.084;2022-10-20T07:43:34;2.00;;;1.90;;
1593;SDS011;790;47.000;16.084;2022-10-20T07:46:02;1.77;;;1.60;;
1593;SDS011;790;47.000;16.084;2022-10-20T07:48:29;2.30;;;2.10;;
1593;SDS011;790;47.000;16.084;2022-10-20T07:51:11;1.83;;;1.73;;
1593;SDS011;790;47.000;16.084;2022-10-20T07:53:40;2.33;;;1.93;;
1593;SDS011;790;47.000;16.084;2022-10-20T07:56:09;2.30;;;1.83;;
1593;SDS011;790;47.000;16.084;2022-10-20T07:58:36;2.37;;;2.17;;
1593;SDS011;790;47.000;16.084;2022-10-20T08:01:03;1.67;;;1.67;;
1593;SDS011;790;47.000;16.084;2022-10-20T08:03:30;2.77;;;1.70;;
1593;SDS011;790;47.000;16.084;2022-10-20T08:05:57;2.33;;;1.73;;
1593;SDS011;790;47.000;16.084;2022-10-20T08:08:25;1.80;;;1.70;;
1593;SDS011;790;47.000;16.084;2022-10-20T08:10:52;1.93;;;1.70;;
1593;SDS011;790;47.000;16.084;2022-10-20T08:13:21;2.20;;;1.90;;
1593;SDS011;790;47.000;16.084;2022-10-20T08:15:48;1.80;;;1.70;;
1593;SDS011;790;47.000;16.084;2022-10-20T08:18:15;1.83;;;1.73;;
1593;SDS011;790;47.000;16.084;2022-10-20T08:20:42;3.33;;;2.23;;
1593;SDS011;790;47.000;16.084;2022-10-20T08:23:10;2.10;;;1.70;;
1593;SDS011;790;47.000;16.084;2022-10-20T08:25:37;2.40;;;1.50;;
1593;SDS011;790;47.000;16.084;2022-10-20T08:28:04;3.00;;;1.63;;
1593;SDS011;790;47.000;16.084;2022-10-20T08:30:33;2.43;;;1.80;;
1593;SDS011;790;47.000;16.084;2022-10-20T08:33:00;1.57;;;1.47;;
1593;SDS011;790;47.000;16.084;2022-10-20T08:35:28;1.40;;;1.30;;
1593;SDS011;790;47.000;16.084;2022-10-20T08:37:55;1.40;;;1.40;;
1593;SDS011;790;47.000;16.084;2022-10-20T08:40:23;2.63;;;1.60;;
1593;SDS011;790;47.000;16.084;2022-10-20T08:42:52;1.60;;;1.50;;
1593;SDS011;790;47.000;16.084;2022-10-20T08:45:21;3.73;;;1.53;;
1593;SDS011;790;47.000;16.084;2022-10-20T08:47:52;1.77;;;1.40;;
1593;SDS011;790;47.000;16.084;2022-10-20T08:50:21;1.97;;;1.47;;
1593;SDS011;790;47.000;16.084;2022-10-20T08:52:52;1.50;;;1.40;;
1593;SDS011;790;47.000;16.084;2022-10-20T08:55:23;2.43;;;1.60;;
1593;SDS011;790;47.000;16.084;2022-10-20T08:57:55;4.80;;;1.80;;
1593;SDS011;790;47.000;16.084;2022-10-20T09:00:26;1.67;;;1.33;;
1593;SDS011;790;47.000;16.084;2022-10-20T09:02:59;2.77;;;1.27;;
1593;SDS011;790;47.000;16.084;2022-10-20T09:05:35;1.30;;;1.20;;
1593;SDS011;790;47.000;16.084;2022-10-20T09:08:07;2.43;;;1.37;;
1593;SDS011;790;47.000;16.084;2022-10-20T09:10:35;3.00;;;1.17;;
1593;SDS011;790;47.000;16.084;2022-10-20T09:13:05;1.03;;;1.03;;
1593;SDS011;790;47.000;16.084;2022-10-20T09:15:36;1.43;;;1.20;;
1593;SDS011;790;47.000;16.084;2022-10-20T09:18:09;4.40;;;1.40;;
1593;SDS011;790;47.000;16.084;2022-10-20T09:20:41;1.73;;;1.50;;
1593;SDS011;790;47.000;16.084;2022-10-20T09:23:13;2.43;;;1.40;;
1593;SDS011;790;47.000;16.084;2022-10-20T09:25:42;2.33;;;1.40;;
1593;SDS011;790;47.000;16.084;2022-10-20T09:28:15;1.57;;;1.10;;
1593;SDS011;790;47.000;16.084;2022-10-20T09:30:47;1.93;;;1.30;;
1593;SDS011;790;47.000;16.084;2022-10-20T09:33:24;2.50;;;1.13;;
1593;SDS011;790;47.000;16.084;2022-10-20T09:35:55;1.47;;;1.37;;
1593;SDS011;790;47.000;16.084;2022-10-20T09:38:28;1.40;;;1.30;;
1593;SDS011;790;47.000;16.084;2022-10-20T09:40:59;1.73;;;1.63;;
1593;SDS011;790;47.000;16.084;2022-10-20T09:43:40;1.50;;;1.40;;
1593;SDS011;790;47.000;16.084;2022-10-20T09:46:16;1.53;;;1.30;;
1593;SDS011;790;47.000;16.084;2022-10-20T09:48:49;1.70;;;1.30;;
1593;SDS011;790;47.000;16.084;2022-10-20T09:51:19;1.63;;;1.33;;
1593;SDS011;790;47.000;16.084;2022-10-20T09:53:49;1.40;;;1.30;;
1593;SDS011;790;47.000;16.084;2022-10-20T09:56:26;3.30;;;1.47;;
1593;SDS011;790;47.000;16.084;2022-10-20T09:58:55;1.30;;;1.20;;
1593;SDS011;790;47.000;16.084;2022-10-20T10:01:23;1.80;;;1.63;;
1593;SDS011;790;47.000;16.084;2022-10-20T10:03:52;4.27;;;1.53;;
1593;SDS011;790;47.000;16.084;2022-10-20T10:06:28;2.37;;;1.53;;
1593;SDS011;790;47.000;16.084;2022-10-20T10:09:26;2.20;;;1.50;;
1593;SDS011;790;47.000;16.084;2022-10-20T10:11:59;1.60;;;1.50;;
1593;SDS011;790;47.000;16.084;2022-10-20T10:14:30;2.03;;;1.40;;
1593;SDS011;790;47.000;16.084;2022-10-20T10:16:58;1.43;;;1.43;;
1593;SDS011;790;47.000;16.084;2022-10-20T10:19:28;1.50;;;1.40;;
1593;SDS011;790;47.000;16.084;2022-10-20T10:21:57;1.80;;;1.50;;
1593;SDS011;790;47.000;16.084;2022-10-20T10:24:29;1.80;;;1.70;;
1593;SDS011;790;47.000;16.084;2022-10-20T10:27:09;1.93;;;1.83;;
1593;SDS011;790;47.000;16.084;2022-10-20T10:29:45;3.70;;;2.00;;
1593;SDS011;790;47.000;16.084;2022-10-20T10:32:13;1.80;;;1.70;;
1593;SDS011;790;47.000;16.084;2022-10-20T10:34:44;5.03;;;2.10;;
1593;SDS011;790;47.000;16.084;2022-10-20T10:37:24;1.60;;;1.50;;
1593;SDS011;790;47.000;16.084;2022-10-20T10:39:52;1.67;;;1.57;;
1593;SDS011;790;47.000;16.084;2022-10-20T10:45:29;1.83;;;1.50;;
1593;SDS011;790;47.000;16.084;2022-10-20T10:51:09;7.00;;;2.00;;
1593;SDS011;790;47.000;16.084;2022-10-20T10:53:47;1.90;;;1.50;;
1593;SDS011;790;47.000;16.084;2022-10-20T10:56:28;1.60;;;1.50;;
1593;SDS011;790;47.000;16.084;2022-10-20T10:59:04;3.67;;;1.60;;
1593;SDS011;790;47.000;16.084;2022-10-20T11:01:42;1.77;;;1.50;;
1593;SDS011;790;47.000;16.084;2022-10-20T11:04:30;1.83;;;1.43;;
1593;SDS011;790;47.000;16.084;2022-10-20T11:07:14;1.67;;;1.50;;
1593;SDS011;790;47.000;16.084;2022-10-20T11:09:54;1.70;;;1.60;;
1593;SDS011;790;47.000;16.084;2022-10-20T11:12:36;1.83;;;1.53;;
1593;SDS011;790;47.000;16.084;2022-10-20T11:15:32;1.80;;;1.50;;
1593;SDS011;790;47.000;16.084;2022-10-20T11:18:12;3.03;;;1.60;;
1593;SDS011;790;47.000;16.084;2022-10-20T11:20:51;2.13;;;1.60;;
1593;SDS011;790;47.000;16.084;2022-10-20T11:26:31;2.37;;;1.60;;
1593;SDS011;790;47.000;16.084;2022-10-20T11:28:59;2.60;;;1.60;;
1593;SDS011;790;47.000;16.084;2022-10-20T11:31:29;1.87;;;1.77;;
1593;SDS011;790;47.000;16.084;2022-10-20T11:34:02;2.27;;;1.60;;
1593;SDS011;790;47.000;16.084;2022-10-20T11:36:31;2.13;;;1.80;;
1593;SDS011;790;47.000;16.084;2022-10-20T11:39:03;2.67;;;1.60;;
1593;SDS011;790;47.000;16.084;2022-10-20T11:41:39;3.57;;;3.00;;
1593;SDS011;790;47.000;16.084;2022-10-20T11:44:12;3.60;;;3.40;;
1593;SDS011;790;47.000;16.084;2022-10-20T11:46:44;2.77;;;2.33;;
1593;SDS011;790;47.000;16.084;2022-10-20T11:49:14;2.60;;;1.83;;
1593;SDS011;790;47.000;16.084;2022-10-20T11:51:58;1.70;;;1.60;;
1593;SDS011;790;47.000;16.084;2022-10-20T11:54:49;4.93;;;1.70;;
1593;SDS011;790;47.000;16.084;2022-10-20T11:57:41;2.23;;;1.70;;
1593;SDS011;790;47.000;16.084;2022-10-20T12:00:21;2.50;;;1.90;;
1593;SDS011;790;47.000;16.084;2022-10-20T12:12:13;2.00;;;1.80;;
1593;SDS011;790;47.000;16.084;2022-10-20T12:14:49;6.80;;;2.20;;
1593;SDS011;790;47.000;16.084;2022-10-20T12:17:28;2.40;;;2.20;;
1593;SDS011;790;47.000;16.084;2022-10-20T12:23:03;3.87;;;2.90;;
1593;SDS011;790;47.000;16.084;2022-10-20T12:25:35;6.30;;;5.70;;
1593;SDS011;790;47.000;16.084;2022-10-20T12:31:07;8.63;;;6.73;;
1593;SDS011;790;47.000;16.084;2022-10-20T12:33:39;8.00;;;7.03;;
1593;SDS011;790;47.000;16.084;2022-10-20T12:36:11;8.80;;;7.77;;
1593;SDS011;790;47.000;16.084;2022-10-20T12:38:53;6.47;;;5.70;;
1593;SDS011;790;47.000;16.084;2022-10-20T12:41:41;4.93;;;4.23;;
1593;SDS011;790;47.000;16.084;2022-10-20T12:44:13;4.43;;;3.90;;
1593;SDS011;790;47.000;16.084;2022-10-20T12:46:50;4.80;;;4.27;;
1593;SDS011;790;47.000;16.084;2022-10-20T12:49:21;4.77;;;4.10;;
1593;SDS011;790;47.000;16.084;2022-10-20T12:51:54;5.40;;;4.70;;
1593;SDS011;790;47.000;16.084;2022-10-20T12:54:23;7.13;;;5.97;;
1593;SDS011;790;47.000;16.084;2022-10-20T12:56:56;3.73;;;3.33;;
1593;SDS011;790;47.000;16.084;2022-10-20T13:05:24;6.20;;;3.70;;
1593;SDS011;790;47.000;16.084;2022-10-20T13:08:00;4.10;;;3.43;;
1593;SDS011;790;47.000;16.084;2022-10-20T13:10:41;4.87;;;3.80;;
1593;SDS011;790;47.000;16.084;2022-10-20T13:16:09;8.63;;;6.17;;
1593;SDS011;790;47.000;16.084;2022-10-20T13:18:43;5.93;;;4.27;;
1593;SDS011;790;47.000;16.084;2022-10-20T13:21:21;4.63;;;3.80;;
1593;SDS011;790;47.000;16.084;2022-10-20T13:23:59;4.10;;;3.70;;
1593;SDS011;790;47.000;16.084;2022-10-20T13:26:35;5.97;;;3.80;;
1593;SDS011;790;47.000;16.084;2022-10-20T13:29:10;4.50;;;4.10;;
1593;SDS011;790;47.000;16.084;2022-10-20T13:31:40;4.50;;;4.10;;
1593;SDS011;790;47.000;16.084;2022-10-20T13:34:15;3.47;;;3.27;;
1593;SDS011;790;47.000;16.084;2022-10-20T13:36:56;3.63;;;3.17;;
1593;SDS011;790;47.000;16.084;2022-10-20T13:39:32;5.50;;;3.63;;
1593;SDS011;790;47.000;16.084;2022-10-20T13:42:07;5.60;;;4.30;;
1593;SDS011;790;47.000;16.084;2022-10-20T13:44:45;4.53;;;4.13;;
1593;SDS011;790;47.000;16.084;2022-10-20T13:50:17;5.47;;;4.10;;
1593;SDS011;790;47.000;16.084;2022-10-20T13:52:48;5.17;;;3.77;;
1593;SDS011;790;47.000;16.084;2022-10-20T13:55:18;5.93;;;3.63;;
1593;SDS011;790;47.000;16.084;2022-10-20T13:57:49;4.07;;;3.77;;
1593;SDS011;790;47.000;16.084;2022-10-20T14:00:19;4.90;;;4.40;;
1593;SDS011;790;47.000;16.084;2022-10-20T14:02:52;5.63;;;4.43;;
1593;SDS011;790;47.000;16.084;2022-10-20T14:05:23;5.20;;;3.87;;
1593;SDS011;790;47.000;16.084;2022-10-20T14:07:51;4.70;;;3.97;;
1593;SDS011;790;47.000;16.084;2022-10-20T14:10:20;6.47;;;4.37;;
1593;SDS011;790;47.000;16.084;2022-10-20T14:12:50;4.70;;;4.17;;
1593;SDS011;790;47.000;16.084;2022-10-20T14:15:19;15.20;;;4.17;;
1593;SDS011;790;47.000;16.084;2022-10-20T14:17:55;6.40;;;3.60;;
1593;SDS011;790;47.000;16.084;2022-10-20T14:20:25;4.63;;;3.43;;
1593;SDS011;790;47.000;16.084;2022-10-20T14:22:53;5.70;;;3.83;;
1593;SDS011;790;47.000;16.084;2022-10-20T14:25:22;12.30;;;4.37;;
1593;SDS011;790;47.000;16.084;2022-10-20T14:27:49;4.27;;;3.97;;
1593;SDS011;790;47.000;16.084;2022-10-20T14:30:18;4.37;;;3.80;;
1593;SDS011;790;47.000;16.084;2022-10-20T14:32:46;3.80;;;3.47;;
1593;SDS011;790;47.000;16.084;2022-10-20T14:35:15;6.27;;;3.33;;
1593;SDS011;790;47.000;16.084;2022-10-20T14:37:52;4.30;;;3.57;;
1593;SDS011;790;47.000;16.084;2022-10-20T14:40:23;7.70;;;3.77;;
1593;SDS011;790;47.000;16.084;2022-10-20T14:42:55;3.77;;;3.30;;
1593;SDS011;790;47.000;16.084;2022-10-20T14:45:25;5.27;;;3.77;;
1593;SDS011;790;47.000;16.084;2022-10-20T14:47:54;6.10;;;3.30;;
1593;SDS011;790;47.000;16.084;2022-10-20T14:50:25;3.73;;;3.20;;
1593;SDS011;790;47.000;16.084;2022-10-20T14:55:55;3.87;;;3.50;;
1593;SDS011;790;47.000;16.084;2022-10-20T14:58:32;6.33;;;3.53;;
1593;SDS011;790;47.000;16.084;2022-10-20T15:04:03;4.40;;;2.90;;
1593;SDS011;790;47.000;16.084;2022-10-20T15:06:32;5.90;;;2.80;;
1593;SDS011;790;47.000;16.084;2022-10-20T15:09:01;7.67;;;3.43;;
1593;SDS011;790;47.000;16.084;2022-10-20T15:11:29;7.77;;;3.57;;
1593;SDS011;790;47.000;16.084;2022-10-20T15:13:56;2.97;;;2.73;;
1593;SDS011;790;47.000;16.084;2022-10-20T15:16:32;6.07;;;3.40;;
1593;SDS011;790;47.000;16.084;2022-10-20T15:19:23;7.23;;;3.10;;
1593;SDS011;790;47.000;16.084;2022-10-20T15:21:57;8.40;;;3.20;;
1593;SDS011;790;47.000;16.084;2022-10-20T15:24:27;10.53;;;3.43;;
1593;SDS011;790;47.000;16.084;2022-10-20T15:26:55;7.37;;;3.60;;
1593;SDS011;790;47.000;16.084;2022-10-20T15:29:23;3.57;;;3.30;;
1593;SDS011;790;47.000;16.084;2022-10-20T15:31:50;8.27;;;4.50;;
1593;SDS011;790;47.000;16.084;2022-10-20T15:34:18;6.73;;;3.80;;
1593;SDS011;790;47.000;16.084;2022-10-20T15:36:46;5.00;;;3.60;;
1593;SDS011;790;47.000;16.084;2022-10-20T15:39:13;10.70;;;3.50;;
1593;SDS011;790;47.000;16.084;2022-10-20T15:41:41;6.00;;;3.20;;
1593;SDS011;790;47.000;16.084;2022-10-20T15:44:14;10.43;;;3.30;;
1593;SDS011;790;47.000;16.084;2022-10-20T15:46:44;7.17;;;4.00;;
1593;SDS011;790;47.000;16.084;2022-10-20T15:49:11;5.50;;;3.80;;
1593;SDS011;790;47.000;16.084;2022-10-20T15:51:39;6.53;;;3.57;;
1593;SDS011;790;47.000;16.084;2022-10-20T15:54:09;3.80;;;3.30;;
1593;SDS011;790;47.000;16.084;2022-10-20T15:56:41;4.23;;;3.80;;
1593;SDS011;790;47.000;16.084;2022-10-20T15:59:09;8.83;;;3.87;;
1593;SDS011;790;47.000;16.084;2022-10-20T16:01:36;4.10;;;3.70;;
1593;SDS011;790;47.000;16.084;2022-10-20T16:04:08;7.40;;;3.70;;
1593;SDS011;790;47.000;16.084;2022-10-20T16:06:43;9.00;;;3.40;;
1593;SDS011;790;47.000;16.084;2022-10-20T16:09:11;5.03;;;3.30;;
1593;SDS011;790;47.000;16.084;2022-10-20T16:11:39;9.50;;;3.60;;
1593;SDS011;790;47.000;16.084;2022-10-20T16:14:07;4.50;;;4.10;;
1593;SDS011;790;47.000;16.084;2022-10-20T16:16:34;4.17;;;3.77;;
1593;SDS011;790;47.000;16.084;2022-10-20T16:19:02;7.07;;;3.17;;
1593;SDS011;790;47.000;16.084;2022-10-20T16:21:29;2.90;;;2.73;;
1593;SDS011;790;47.000;16.084;2022-10-20T16:23:57;5.03;;;3.63;;